createdAt,value
2018-09-19T00:00:24.199Z,13.70
2018-09-19T00:02:52.662Z,13.80
2018-09-19T00:05:21.151Z,13.70
2018-09-19T00:07:49.623Z,13.70
2018-09-19T00:10:18.102Z,13.70
2018-09-19T00:12:46.570Z,13.70
2018-09-19T00:15:15.036Z,13.60
2018-09-19T00:17:43.546Z,13.60
2018-09-19T00:20:12.046Z,13.60
2018-09-19T00:22:40.506Z,13.50
2018-09-19T00:25:08.978Z,13.50
2018-09-19T00:27:37.453Z,13.50
2018-09-19T00:30:05.974Z,13.50
2018-09-19T00:32:34.451Z,13.50
2018-09-19T00:35:02.942Z,13.40
2018-09-19T00:37:31.418Z,13.50
2018-09-19T00:39:59.886Z,13.50
2018-09-19T00:42:28.372Z,13.50
2018-09-19T00:44:56.845Z,13.50
2018-09-19T00:47:25.363Z,13.40
2018-09-19T00:49:53.850Z,13.40
2018-09-19T00:52:22.314Z,13.30
2018-09-19T00:54:50.783Z,13.40
2018-09-19T00:57:19.251Z,13.40
2018-09-19T00:59:47.731Z,13.50
2018-09-19T01:02:16.258Z,13.60
2018-09-19T01:04:44.703Z,13.60
2018-09-19T01:07:13.174Z,13.50
2018-09-19T01:09:41.644Z,13.50
2018-09-19T01:12:10.110Z,13.40
2018-09-19T01:14:38.594Z,13.40
2018-09-19T01:17:07.071Z,13.30
2018-09-19T01:19:35.654Z,13.30
2018-09-19T01:22:04.144Z,13.30
2018-09-19T01:24:32.651Z,13.30
2018-09-19T01:27:01.118Z,13.20
2018-09-19T01:29:29.617Z,13.20
2018-09-19T01:31:58.078Z,13.20
2018-09-19T01:34:26.550Z,13.20
2018-09-19T01:36:55.010Z,13.20
2018-09-19T01:39:23.475Z,13.10
2018-09-19T01:41:51.946Z,13.20
2018-09-19T01:44:20.429Z,13.10
2018-09-19T01:46:48.962Z,13.20
2018-09-19T01:49:17.447Z,13.10
2018-09-19T01:51:45.971Z,13.20
2018-09-19T01:54:14.527Z,13.20
2018-09-19T01:56:42.994Z,13.20
2018-09-19T01:59:11.467Z,13.20
2018-09-19T02:01:39.942Z,13.30
2018-09-19T02:04:08.431Z,13.30
2018-09-19T02:06:36.928Z,13.30
2018-09-19T02:09:08.529Z,13.30
2018-09-19T02:11:37.003Z,13.30
2018-09-19T02:14:05.497Z,13.30
2018-09-19T02:16:34.015Z,13.20
2018-09-19T02:19:02.476Z,13.10
2018-09-19T02:21:30.963Z,13.10
2018-09-19T02:23:59.430Z,13.10
2018-09-19T02:26:27.949Z,13.00
2018-09-19T02:28:56.478Z,13.00
2018-09-19T02:31:24.971Z,13.00
2018-09-19T02:33:53.853Z,12.90
2018-09-19T02:36:24.271Z,12.90
2018-09-19T02:38:54.378Z,12.90
2018-09-19T02:41:22.892Z,12.80
2018-09-19T02:43:51.982Z,12.90
2018-09-19T02:46:20.487Z,12.90
2018-09-19T02:48:49.559Z,12.90
2018-09-19T02:51:18.531Z,12.90
2018-09-19T02:53:48.135Z,12.80
2018-09-19T02:56:16.649Z,12.90
2018-09-19T02:58:45.148Z,12.90
2018-09-19T03:01:13.625Z,12.90
2018-09-19T03:03:42.107Z,12.90
2018-09-19T03:06:10.582Z,12.90
2018-09-19T03:08:39.057Z,13.00
2018-09-19T03:11:07.607Z,12.90
2018-09-19T03:13:36.080Z,12.90
2018-09-19T03:16:04.533Z,12.90
2018-09-19T03:18:33.060Z,12.80
2018-09-19T03:21:01.566Z,12.80
2018-09-19T03:23:30.067Z,12.80
2018-09-19T03:25:58.520Z,12.80
2018-09-19T03:28:26.994Z,12.70
2018-09-19T03:30:55.489Z,12.70
2018-09-19T03:33:24.023Z,12.70
2018-09-19T03:35:52.512Z,12.80
2018-09-19T03:38:21.002Z,12.80
2018-09-19T03:40:49.475Z,12.80
2018-09-19T03:43:17.947Z,12.80
2018-09-19T03:45:46.422Z,12.80
2018-09-19T03:48:14.900Z,12.80
2018-09-19T03:50:43.469Z,12.80
2018-09-19T03:53:14.069Z,12.70
2018-09-19T03:55:42.552Z,12.70
2018-09-19T03:58:11.125Z,12.70
2018-09-19T04:00:39.614Z,12.70
2018-09-19T04:03:08.096Z,12.60
2018-09-19T04:05:36.579Z,12.60
2018-09-19T04:08:05.078Z,12.60
2018-09-19T04:10:33.643Z,12.70
2018-09-19T04:13:02.167Z,12.70
2018-09-19T04:15:30.670Z,12.60
2018-09-19T04:17:59.226Z,12.60
2018-09-19T04:20:27.641Z,12.60
2018-09-19T04:22:56.123Z,12.60
2018-09-19T04:25:24.596Z,12.60
2018-09-19T04:27:53.102Z,12.60
2018-09-19T04:30:21.592Z,12.60
2018-09-19T04:32:50.092Z,12.50
2018-09-19T04:35:18.553Z,12.50
2018-09-19T04:37:47.073Z,12.50
2018-09-19T04:40:15.598Z,12.50
2018-09-19T04:42:44.096Z,12.50
2018-09-19T04:45:12.652Z,12.50
2018-09-19T04:47:41.046Z,12.50
2018-09-19T04:50:09.667Z,12.60
2018-09-19T04:52:38.135Z,12.70
2018-09-19T04:55:06.782Z,12.70
2018-09-19T04:57:35.241Z,12.70
2018-09-19T05:00:04.071Z,12.70
2018-09-19T05:02:32.611Z,12.70
2018-09-19T05:05:01.094Z,12.70
2018-09-19T05:07:29.548Z,12.70
2018-09-19T05:09:58.068Z,12.60
2018-09-19T05:12:26.570Z,12.60
2018-09-19T05:14:55.056Z,12.70
2018-09-19T05:17:23.529Z,12.70
2018-09-19T05:19:52.040Z,12.90
2018-09-19T05:22:20.526Z,12.90
2018-09-19T05:24:49.002Z,13.00
2018-09-19T05:27:17.519Z,13.00
2018-09-19T05:29:46.599Z,13.10
2018-09-19T05:32:15.110Z,13.10
2018-09-19T05:34:43.582Z,13.20
2018-09-19T05:37:12.054Z,13.30
2018-09-19T05:39:40.551Z,13.40
2018-09-19T05:42:09.046Z,13.50
2018-09-19T05:44:37.542Z,13.70
2018-09-19T05:47:06.033Z,13.80
2018-09-19T05:49:35.343Z,14.00
2018-09-19T05:52:03.834Z,14.10
2018-09-19T05:54:32.421Z,14.20
2018-09-19T05:57:00.843Z,14.30
2018-09-19T05:59:29.338Z,14.50
2018-09-19T06:01:57.855Z,14.60
2018-09-19T06:04:26.323Z,14.90
2018-09-19T06:06:54.824Z,15.10
2018-09-19T06:09:23.290Z,15.30
2018-09-19T06:11:51.760Z,15.50
2018-09-19T06:14:20.234Z,15.60
2018-09-19T06:16:48.769Z,15.80
2018-09-19T06:19:17.281Z,15.80
2018-09-19T06:21:45.758Z,16.00
2018-09-19T06:24:14.262Z,16.00
2018-09-19T06:26:42.744Z,16.30
2018-09-19T06:29:11.216Z,16.30
2018-09-19T06:31:39.678Z,16.40
2018-09-19T06:34:08.231Z,16.60
2018-09-19T06:36:36.706Z,16.70
2018-09-19T06:39:06.263Z,16.70
2018-09-19T06:41:34.787Z,16.90
2018-09-19T06:44:03.248Z,17.10
2018-09-19T06:46:31.786Z,17.20
2018-09-19T06:49:00.339Z,17.40
2018-09-19T06:51:28.810Z,17.40
2018-09-19T06:53:57.584Z,17.50
2018-09-19T06:56:26.434Z,17.50
2018-09-19T06:58:54.917Z,17.50
2018-09-19T07:01:23.478Z,17.40
2018-09-19T07:03:52.078Z,17.50
2018-09-19T07:06:20.647Z,17.50
2018-09-19T07:08:49.122Z,17.60
2018-09-19T07:11:17.587Z,17.60
2018-09-19T07:13:46.252Z,17.50
2018-09-19T07:16:14.738Z,17.50
2018-09-19T07:18:43.267Z,17.50
2018-09-19T07:21:11.760Z,17.50
2018-09-19T07:23:40.244Z,17.60
2018-09-19T07:26:08.730Z,17.60
2018-09-19T07:28:37.209Z,17.70
2018-09-19T07:31:05.741Z,17.80
2018-09-19T07:33:34.487Z,18.00
2018-09-19T07:36:02.986Z,18.20
2018-09-19T07:38:31.486Z,18.40
2018-09-19T07:40:59.952Z,18.70
2018-09-19T07:43:28.418Z,19.00
2018-09-19T07:45:56.902Z,19.20
2018-09-19T07:48:25.362Z,19.40
2018-09-19T07:50:53.840Z,19.60
2018-09-19T07:53:22.357Z,19.60
2018-09-19T07:55:50.842Z,19.80
2018-09-19T07:58:19.321Z,20.10
2018-09-19T08:00:47.936Z,20.10
2018-09-19T08:03:16.281Z,20.30
2018-09-19T08:05:44.762Z,20.30
2018-09-19T08:08:13.254Z,20.50
2018-09-19T08:10:41.727Z,20.50
2018-09-19T08:13:10.211Z,20.60
2018-09-19T08:15:38.686Z,20.70
2018-09-19T08:18:07.206Z,20.80
2018-09-19T08:20:35.705Z,20.60
2018-09-19T08:23:04.197Z,20.50
2018-09-19T08:25:32.690Z,20.90
2018-09-19T08:28:01.495Z,20.90
2018-09-19T08:30:30.079Z,20.90
2018-09-19T08:32:58.599Z,21.10
2018-09-19T08:35:27.079Z,21.30
2018-09-19T08:37:55.575Z,21.40
2018-09-19T08:40:24.082Z,21.70
2018-09-19T08:42:52.561Z,22.00
2018-09-19T08:45:21.030Z,22.00
2018-09-19T08:47:49.512Z,22.10
2018-09-19T08:50:17.989Z,22.10
2018-09-19T08:52:46.499Z,21.90
2018-09-19T08:55:14.995Z,22.10
2018-09-19T08:57:43.454Z,22.10
2018-09-19T09:00:12.039Z,22.20
2018-09-19T09:02:40.513Z,22.00
2018-09-19T09:05:09.089Z,22.20
2018-09-19T09:07:37.562Z,22.20
2018-09-19T09:10:06.067Z,22.20
2018-09-19T09:12:34.580Z,22.30
2018-09-19T09:15:03.356Z,22.30
2018-09-19T09:17:31.889Z,22.20
2018-09-19T09:20:00.404Z,22.10
2018-09-19T09:22:28.875Z,22.00
2018-09-19T09:24:57.362Z,21.90
2018-09-19T09:27:25.922Z,21.90
2018-09-19T09:29:54.332Z,22.00
2018-09-19T09:32:22.799Z,22.10
2018-09-19T09:34:51.253Z,22.00
2018-09-19T09:37:19.740Z,22.10
2018-09-19T09:39:48.209Z,22.30
2018-09-19T09:42:16.683Z,22.40
2018-09-19T09:44:45.153Z,22.70
2018-09-19T09:47:13.636Z,23.00
2018-09-19T09:49:42.096Z,23.10
2018-09-19T09:52:10.603Z,23.10
2018-09-19T09:54:39.086Z,23.20
2018-09-19T09:57:07.571Z,23.30
2018-09-19T09:59:36.060Z,23.40
2018-09-19T10:02:04.517Z,23.20
2018-09-19T10:04:33.011Z,23.30
2018-09-19T10:07:01.479Z,23.40
2018-09-19T10:09:30.001Z,23.30
2018-09-19T10:11:58.480Z,23.40
2018-09-19T10:14:26.956Z,23.60
2018-09-19T10:16:55.431Z,23.40
2018-09-19T10:19:23.916Z,23.50
2018-09-19T10:21:52.390Z,23.40
2018-09-19T10:24:20.871Z,23.70
2018-09-19T10:26:49.346Z,23.80
2018-09-19T10:29:17.940Z,23.80
2018-09-19T10:31:46.418Z,23.80
2018-09-19T10:34:14.903Z,24.00
2018-09-19T10:36:43.375Z,24.30
2018-09-19T10:39:11.876Z,24.00
2018-09-19T10:41:40.342Z,24.20
2018-09-19T10:44:08.835Z,24.40
2018-09-19T10:46:37.299Z,24.50
2018-09-19T10:49:05.774Z,24.50
2018-09-19T10:51:34.231Z,24.50
2018-09-19T10:54:02.715Z,24.40
2018-09-19T10:56:31.250Z,24.30
2018-09-19T10:58:59.730Z,24.20
2018-09-19T11:01:28.190Z,24.30
2018-09-19T11:03:56.712Z,24.50
2018-09-19T11:06:25.166Z,24.60
2018-09-19T11:08:53.637Z,24.90
2018-09-19T11:11:22.112Z,25.00
2018-09-19T11:13:50.592Z,25.10
2018-09-19T11:16:19.071Z,25.20
2018-09-19T11:18:47.578Z,25.30
2018-09-19T11:21:16.089Z,25.20
2018-09-19T11:23:44.562Z,25.10
2018-09-19T11:26:13.023Z,24.80
2018-09-19T11:28:41.570Z,24.50
2018-09-19T11:31:10.106Z,24.00
2018-09-19T11:33:38.681Z,23.60
2018-09-19T11:36:07.195Z,23.40
2018-09-19T11:38:35.694Z,23.50
2018-09-19T11:41:04.246Z,23.50
2018-09-19T11:43:32.771Z,23.30
2018-09-19T11:46:01.288Z,23.10
2018-09-19T11:48:29.806Z,23.00
2018-09-19T11:50:58.552Z,23.10
2018-09-19T11:53:27.954Z,23.10
2018-09-19T11:55:57.766Z,23.30
2018-09-19T11:58:26.584Z,23.40
2018-09-19T12:00:55.056Z,23.70
2018-09-19T12:03:23.530Z,23.80
2018-09-19T12:05:52.000Z,24.30
2018-09-19T12:08:20.984Z,24.70
2018-09-19T12:10:49.481Z,25.00
2018-09-19T12:13:18.048Z,25.10
2018-09-19T12:15:46.527Z,25.00
2018-09-19T12:18:15.003Z,25.10
2018-09-19T12:20:43.487Z,25.10
2018-09-19T12:23:11.986Z,25.10
2018-09-19T12:25:40.445Z,25.00
2018-09-19T12:28:09.249Z,24.80
2018-09-19T12:30:37.730Z,24.70
2018-09-19T12:33:06.278Z,24.50
2018-09-19T12:35:34.759Z,24.40
2018-09-19T12:38:03.267Z,24.30
2018-09-19T12:40:31.759Z,24.00
2018-09-19T12:43:00.286Z,23.70
2018-09-19T12:45:28.846Z,23.50
2018-09-19T12:47:57.314Z,23.40
2018-09-19T12:50:25.770Z,23.30
2018-09-19T12:52:54.306Z,23.30
2018-09-19T12:55:22.828Z,23.20
2018-09-19T12:57:51.313Z,23.20
2018-09-19T13:00:19.836Z,23.10
2018-09-19T13:02:48.466Z,23.10
2018-09-19T13:05:16.948Z,23.10
2018-09-19T13:07:45.422Z,23.10
2018-09-19T13:10:13.939Z,23.00
2018-09-19T13:12:42.411Z,23.00
2018-09-19T13:15:11.030Z,22.90
2018-09-19T13:17:39.483Z,22.90
2018-09-19T13:20:07.972Z,22.90
2018-09-19T13:22:36.489Z,22.90
2018-09-19T13:25:05.354Z,22.90
2018-09-19T13:27:33.811Z,23.10
2018-09-19T13:30:02.299Z,23.10
2018-09-19T13:32:30.787Z,23.20
2018-09-19T13:34:59.252Z,23.40
2018-09-19T13:37:27.716Z,23.70
2018-09-19T13:39:56.239Z,24.10
2018-09-19T13:42:24.725Z,24.30
2018-09-19T13:44:53.214Z,24.10
2018-09-19T13:47:21.683Z,24.20
2018-09-19T13:49:53.178Z,24.30
2018-09-19T13:52:21.664Z,24.30
2018-09-19T13:54:50.158Z,24.30
2018-09-19T13:57:18.647Z,24.30
2018-09-19T13:59:47.119Z,24.40
2018-09-19T14:02:15.587Z,24.60
2018-09-19T14:04:44.044Z,24.80
2018-09-19T14:07:12.510Z,24.70
2018-09-19T14:09:40.970Z,24.80
2018-09-19T14:12:09.521Z,24.90
2018-09-19T14:14:37.947Z,24.90
2018-09-19T14:17:06.861Z,24.70
2018-09-19T14:19:35.331Z,24.70
2018-09-19T14:22:03.815Z,24.60
2018-09-19T14:24:32.347Z,24.40
2018-09-19T14:27:00.828Z,24.40
2018-09-19T14:29:29.355Z,24.30
2018-09-19T14:31:57.840Z,24.20
2018-09-19T14:34:26.316Z,24.20
2018-09-19T14:36:54.795Z,24.10
2018-09-19T14:39:23.284Z,24.10
2018-09-19T14:41:51.735Z,24.00
2018-09-19T14:44:20.251Z,23.90
2018-09-19T14:46:48.740Z,23.80
2018-09-19T14:49:17.292Z,23.60
2018-09-19T14:51:45.770Z,23.40
2018-09-19T14:54:14.436Z,23.40
2018-09-19T14:56:42.864Z,23.20
2018-09-19T14:59:11.358Z,23.10
2018-09-19T15:01:39.890Z,23.00
2018-09-19T15:04:08.396Z,23.00
2018-09-19T15:06:36.907Z,23.00
2018-09-19T15:09:08.825Z,23.00
2018-09-19T15:11:37.431Z,23.10
2018-09-19T15:14:06.087Z,23.00
2018-09-19T15:16:34.608Z,23.00
2018-09-19T15:19:03.249Z,22.90
2018-09-19T15:21:31.799Z,22.80
2018-09-19T15:24:00.461Z,22.70
2018-09-19T15:26:28.951Z,22.70
2018-09-19T15:28:58.069Z,22.80
2018-09-19T15:31:26.638Z,22.80
2018-09-19T15:33:55.116Z,22.80
2018-09-19T15:36:23.714Z,22.80
2018-09-19T15:38:52.199Z,22.70
2018-09-19T15:41:20.710Z,22.80
2018-09-19T15:43:49.214Z,22.70
2018-09-19T15:46:17.698Z,22.70
2018-09-19T15:48:46.362Z,22.60
2018-09-19T15:51:14.819Z,22.50
2018-09-19T15:53:43.343Z,22.50
2018-09-19T15:56:11.855Z,22.40
2018-09-19T15:58:40.328Z,22.40
2018-09-19T16:01:08.839Z,22.30
2018-09-19T16:03:37.375Z,22.20
2018-09-19T16:06:05.892Z,22.10
2018-09-19T16:08:34.359Z,22.10
2018-09-19T16:11:02.854Z,22.00
2018-09-19T16:13:31.422Z,21.90
2018-09-19T16:15:59.910Z,22.00
2018-09-19T16:18:28.391Z,22.00
2018-09-19T16:20:56.895Z,22.00
2018-09-19T16:23:25.374Z,22.10
2018-09-19T16:25:53.859Z,22.00
2018-09-19T16:28:22.378Z,21.80
2018-09-19T16:30:50.931Z,21.70
2018-09-19T16:33:19.415Z,21.60
2018-09-19T16:35:47.906Z,21.50
2018-09-19T16:38:16.395Z,21.40
2018-09-19T16:40:44.887Z,21.40
2018-09-19T16:43:13.386Z,21.30
2018-09-19T16:45:41.877Z,21.20
2018-09-19T16:48:10.351Z,21.20
2018-09-19T16:50:38.839Z,21.10
2018-09-19T16:53:07.425Z,21.10
2018-09-19T16:55:35.821Z,21.10
2018-09-19T16:58:04.367Z,21.00
2018-09-19T17:00:32.988Z,21.00
2018-09-19T17:03:01.470Z,21.00
2018-09-19T17:05:29.955Z,20.90
2018-09-19T17:07:59.158Z,20.90
2018-09-19T17:10:27.631Z,20.80
2018-09-19T17:12:56.106Z,20.60
2018-09-19T17:15:24.593Z,20.50
2018-09-19T17:17:53.103Z,20.40
2018-09-19T17:20:21.619Z,20.30
2018-09-19T17:22:50.101Z,20.10
2018-09-19T17:25:18.632Z,19.90
2018-09-19T17:27:47.099Z,19.90
2018-09-19T17:30:15.719Z,19.80
2018-09-19T17:32:44.217Z,19.70
2018-09-19T17:35:12.770Z,19.60
2018-09-19T17:37:41.330Z,19.50
2018-09-19T17:40:09.931Z,19.50
2018-09-19T17:42:38.434Z,19.40
2018-09-19T17:45:07.570Z,19.20
2018-09-19T17:47:36.103Z,19.10
2018-09-19T17:50:05.428Z,19.00
2018-09-19T17:52:33.914Z,18.90
2018-09-19T17:55:02.602Z,18.70
2018-09-19T17:57:31.199Z,18.70
2018-09-19T17:59:59.694Z,18.60
2018-09-19T18:02:28.189Z,18.50
2018-09-19T18:04:56.904Z,18.40
2018-09-19T18:07:25.475Z,18.40
2018-09-19T18:09:54.002Z,18.30
2018-09-19T18:12:22.595Z,18.30
2018-09-19T18:14:51.253Z,18.30
2018-09-19T18:17:19.748Z,18.20
2018-09-19T18:19:48.266Z,18.20
2018-09-19T18:22:16.790Z,18.00
2018-09-19T18:24:45.322Z,18.00
2018-09-19T18:27:13.889Z,17.90
2018-09-19T18:29:43.251Z,17.80
2018-09-19T18:32:11.740Z,17.70
2018-09-19T18:34:40.219Z,17.70
2018-09-19T18:37:08.779Z,17.60
2018-09-19T18:39:37.250Z,17.50
2018-09-19T18:42:05.743Z,17.40
2018-09-19T18:44:34.243Z,17.30
2018-09-19T18:47:02.807Z,17.30
2018-09-19T18:49:31.290Z,17.20
2018-09-19T18:51:59.812Z,17.30
2018-09-19T18:54:28.331Z,17.30
2018-09-19T18:56:56.830Z,17.30
2018-09-19T18:59:25.396Z,17.40
2018-09-19T19:01:53.870Z,17.40
2018-09-19T19:04:22.346Z,17.40
2018-09-19T19:06:50.839Z,17.30
2018-09-19T19:09:19.318Z,17.30
2018-09-19T19:11:47.788Z,17.10
2018-09-19T19:14:16.255Z,17.00
2018-09-19T19:16:44.727Z,16.90
2018-09-19T19:19:13.203Z,16.80
2018-09-19T19:21:41.700Z,16.80
2018-09-19T19:24:10.194Z,16.70
2018-09-19T19:26:38.671Z,16.60
2018-09-19T19:29:07.290Z,16.60
2018-09-19T19:31:35.759Z,16.50
2018-09-19T19:34:04.266Z,16.50
2018-09-19T19:36:33.031Z,16.50
2018-09-19T19:39:01.530Z,16.60
2018-09-19T19:41:30.019Z,16.70
2018-09-19T19:43:58.487Z,16.70
2018-09-19T19:46:27.027Z,16.70
2018-09-19T19:48:55.492Z,16.60
2018-09-19T19:51:23.954Z,16.50
2018-09-19T19:53:52.419Z,16.50
2018-09-19T19:56:20.972Z,16.40
2018-09-19T19:58:49.451Z,16.30
2018-09-19T20:01:17.931Z,16.20
2018-09-19T20:03:46.665Z,16.10
2018-09-19T20:06:15.132Z,16.10
2018-09-19T20:08:43.598Z,16.00
2018-09-19T20:11:12.076Z,15.90
2018-09-19T20:13:40.547Z,15.90
2018-09-19T20:16:09.000Z,15.90
2018-09-19T20:18:37.582Z,15.80
2018-09-19T20:21:06.079Z,15.80
2018-09-19T20:23:34.562Z,15.70
2018-09-19T20:26:03.050Z,15.80
2018-09-19T20:28:31.516Z,15.80
2018-09-19T20:30:59.999Z,15.80
2018-09-19T20:33:28.471Z,15.80
2018-09-19T20:35:57.038Z,15.70
2018-09-19T20:38:25.582Z,15.60
2018-09-19T20:40:54.055Z,15.60
2018-09-19T20:43:22.527Z,15.50
2018-09-19T20:45:51.027Z,15.50
2018-09-19T20:48:19.491Z,15.50
2018-09-19T20:50:47.961Z,15.50
2018-09-19T20:53:16.443Z,15.40
2018-09-19T20:55:44.937Z,15.50
2018-09-19T20:58:13.403Z,15.60
2018-09-19T21:00:41.871Z,15.60
2018-09-19T21:03:10.362Z,15.70
2018-09-19T21:05:38.855Z,15.70
2018-09-19T21:08:07.351Z,15.60
2018-09-19T21:10:35.827Z,15.60
2018-09-19T21:13:04.334Z,15.60
2018-09-19T21:15:32.932Z,15.50
2018-09-19T21:18:01.391Z,15.40
2018-09-19T21:20:29.855Z,15.30
2018-09-19T21:22:58.327Z,15.20
2018-09-19T21:25:27.216Z,15.20
2018-09-19T21:27:55.679Z,15.20
2018-09-19T21:30:24.166Z,15.20
2018-09-19T21:32:52.634Z,15.20
2018-09-19T21:35:21.102Z,15.20
2018-09-19T21:37:49.571Z,15.20
2018-09-19T21:40:18.065Z,15.20
2018-09-19T21:42:46.539Z,15.20
2018-09-19T21:45:15.005Z,15.10
2018-09-19T21:47:43.472Z,15.10
2018-09-19T21:50:11.952Z,15.20
2018-09-19T21:52:40.427Z,15.30
2018-09-19T21:55:08.923Z,15.30
2018-09-19T21:57:37.391Z,15.20
2018-09-19T22:00:07.238Z,15.00
2018-09-19T22:02:35.727Z,14.90
2018-09-19T22:05:04.297Z,14.80
2018-09-19T22:07:32.846Z,14.80
2018-09-19T22:10:01.335Z,14.80
2018-09-19T22:12:29.809Z,14.80
2018-09-19T22:14:58.335Z,14.80
2018-09-19T22:17:26.799Z,14.90
2018-09-19T22:19:55.284Z,14.90
2018-09-19T22:22:23.763Z,14.90
2018-09-19T22:24:52.258Z,14.90
2018-09-19T22:27:20.733Z,14.80
2018-09-19T22:29:49.215Z,14.80
2018-09-19T22:32:17.691Z,14.80
2018-09-19T22:34:46.174Z,14.70
2018-09-19T22:37:14.723Z,14.60
2018-09-19T22:39:43.220Z,14.60
2018-09-19T22:42:11.738Z,14.70
2018-09-19T22:44:40.195Z,14.70
2018-09-19T22:47:08.675Z,14.90
2018-09-19T22:49:37.143Z,14.80
2018-09-19T22:52:05.639Z,14.80
2018-09-19T22:54:34.126Z,14.60
2018-09-19T22:57:02.599Z,14.60
2018-09-19T22:59:31.150Z,14.50
2018-09-19T23:01:59.679Z,14.50
2018-09-19T23:04:28.123Z,14.40
2018-09-19T23:06:56.597Z,14.30
2018-09-19T23:09:25.094Z,14.30
2018-09-19T23:11:53.575Z,14.30
2018-09-19T23:14:22.051Z,14.30
2018-09-19T23:16:50.548Z,14.30
2018-09-19T23:19:19.018Z,14.30
2018-09-19T23:21:47.494Z,14.30
2018-09-19T23:24:15.979Z,14.30
2018-09-19T23:26:44.455Z,14.30
2018-09-19T23:29:12.931Z,14.10
2018-09-19T23:31:41.410Z,14.10
2018-09-19T23:34:09.879Z,14.10
2018-09-19T23:36:38.351Z,14.00
2018-09-19T23:39:08.210Z,14.00
2018-09-19T23:41:36.684Z,14.10
2018-09-19T23:44:05.275Z,14.10
2018-09-19T23:46:33.775Z,14.30
2018-09-19T23:49:02.394Z,14.30
2018-09-19T23:51:30.973Z,14.30
2018-09-19T23:53:59.439Z,14.30
2018-09-19T23:56:27.977Z,14.30
2018-09-19T23:58:56.446Z,14.20
